createdAt,value
2018-10-05T00:01:45.437Z,99.90
2018-10-05T00:04:12.984Z,99.90
2018-10-05T00:06:40.551Z,99.90
2018-10-05T00:09:09.257Z,99.90
2018-10-05T00:11:36.848Z,99.90
2018-10-05T00:14:04.401Z,99.90
2018-10-05T00:16:31.961Z,99.90
2018-10-05T00:18:59.503Z,99.90
2018-10-05T00:21:27.039Z,99.90
2018-10-05T00:23:54.568Z,99.90
2018-10-05T00:26:22.154Z,99.90
2018-10-05T00:28:49.693Z,99.90
2018-10-05T00:31:17.264Z,99.90
2018-10-05T00:33:44.887Z,99.90
2018-10-05T00:36:12.442Z,99.90
2018-10-05T00:38:40.003Z,99.90
2018-10-05T00:41:07.548Z,99.90
2018-10-05T00:43:35.072Z,99.90
2018-10-05T00:46:02.590Z,99.90
2018-10-05T00:48:30.187Z,99.90
2018-10-05T00:50:57.733Z,99.90
2018-10-05T00:53:25.346Z,99.90
2018-10-05T00:55:52.900Z,99.90
2018-10-05T00:58:20.464Z,99.90
2018-10-05T01:00:47.998Z,99.90
2018-10-05T01:03:15.590Z,99.90
2018-10-05T01:05:43.225Z,99.90
2018-10-05T01:08:10.754Z,99.90
2018-10-05T01:10:38.532Z,99.90
2018-10-05T01:13:06.593Z,99.90
2018-10-05T01:15:34.144Z,99.90
2018-10-05T01:18:01.697Z,99.90
2018-10-05T01:20:29.249Z,99.90
2018-10-05T01:22:56.763Z,99.90
2018-10-05T01:25:24.287Z,99.90
2018-10-05T01:27:51.805Z,99.90
2018-10-05T01:30:19.374Z,99.90
2018-10-05T01:32:46.913Z,99.90
2018-10-05T01:35:14.469Z,99.90
2018-10-05T01:37:41.989Z,99.90
2018-10-05T01:40:09.972Z,99.90
2018-10-05T01:42:37.497Z,99.90
2018-10-05T01:45:05.233Z,99.90
2018-10-05T01:47:32.764Z,99.90
2018-10-05T01:50:00.348Z,99.90
2018-10-05T01:52:27.879Z,99.90
2018-10-05T01:54:55.465Z,99.90
2018-10-05T01:57:22.999Z,99.90
2018-10-05T01:59:50.549Z,99.90
2018-10-05T02:02:18.114Z,99.90
2018-10-05T02:04:45.649Z,99.90
2018-10-05T02:09:40.655Z,99.90
2018-10-05T02:12:08.231Z,99.90
2018-10-05T02:14:35.740Z,99.90
2018-10-05T02:17:03.294Z,99.90
2018-10-05T02:19:30.842Z,99.90
2018-10-05T02:21:58.383Z,99.90
2018-10-05T02:24:25.923Z,99.90
2018-10-05T02:26:53.463Z,99.90
2018-10-05T02:29:21.033Z,99.90
2018-10-05T02:31:48.580Z,99.90
2018-10-05T02:34:16.117Z,99.90
2018-10-05T02:36:43.756Z,99.90
2018-10-05T02:39:12.405Z,99.90
2018-10-05T02:41:40.127Z,99.90
2018-10-05T02:44:07.666Z,99.90
2018-10-05T02:46:35.207Z,99.90
2018-10-05T02:49:02.878Z,99.90
2018-10-05T02:51:30.764Z,99.90
2018-10-05T02:53:58.296Z,99.90
2018-10-05T02:56:26.049Z,99.90
2018-10-05T02:58:53.608Z,99.90
2018-10-05T03:01:32.486Z,99.90
2018-10-05T03:04:00.050Z,99.90
2018-10-05T03:06:27.604Z,99.90
2018-10-05T03:08:55.148Z,99.90
2018-10-05T03:11:22.682Z,99.90
2018-10-05T03:13:53.270Z,99.90
2018-10-05T03:16:20.949Z,99.90
2018-10-05T03:18:48.490Z,99.90
2018-10-05T03:21:16.027Z,99.90
2018-10-05T03:23:43.609Z,99.90
2018-10-05T03:26:11.206Z,99.90
2018-10-05T03:28:38.734Z,99.90
2018-10-05T03:31:06.329Z,99.90
2018-10-05T03:33:33.900Z,99.90
2018-10-05T03:36:01.458Z,99.90
2018-10-05T03:38:28.993Z,99.90
2018-10-05T03:40:56.573Z,99.90
2018-10-05T03:43:24.325Z,99.90
2018-10-05T03:45:51.845Z,99.90
2018-10-05T03:48:19.417Z,99.90
2018-10-05T03:50:47.033Z,99.90
2018-10-05T03:53:14.622Z,99.90
2018-10-05T03:55:42.192Z,99.90
2018-10-05T03:58:09.765Z,99.90
2018-10-05T04:00:37.381Z,99.90
2018-10-05T04:03:04.942Z,99.90
2018-10-05T04:05:32.485Z,99.90
2018-10-05T04:07:59.979Z,99.90
2018-10-05T04:10:27.522Z,99.90
2018-10-05T04:12:55.071Z,99.90
2018-10-05T04:15:22.781Z,99.90
2018-10-05T04:17:50.341Z,99.90
2018-10-05T04:20:17.881Z,99.90
2018-10-05T04:22:45.410Z,99.90
2018-10-05T04:25:13.005Z,99.90
2018-10-05T04:27:40.535Z,99.90
2018-10-05T04:30:08.084Z,99.90
2018-10-05T04:32:35.621Z,99.90
2018-10-05T04:35:03.208Z,99.90
2018-10-05T04:37:30.739Z,99.90
2018-10-05T04:39:58.320Z,99.90
2018-10-05T04:42:25.823Z,99.90
2018-10-05T04:44:53.368Z,99.90
2018-10-05T04:47:20.892Z,99.90
2018-10-05T04:49:48.440Z,99.90
2018-10-05T04:52:16.011Z,99.90
2018-10-05T04:54:43.537Z,99.90
2018-10-05T04:57:11.188Z,99.90
2018-10-05T04:59:38.744Z,99.90
2018-10-05T05:02:06.393Z,99.90
2018-10-05T05:04:33.921Z,99.90
2018-10-05T05:07:01.515Z,99.90
2018-10-05T05:09:29.023Z,99.90
2018-10-05T05:12:03.156Z,99.90
2018-10-05T05:14:30.681Z,99.90
2018-10-05T05:16:58.274Z,99.90
2018-10-05T05:19:25.866Z,99.90
2018-10-05T05:21:53.438Z,99.90
2018-10-05T05:24:20.948Z,99.40
2018-10-05T05:26:48.525Z,98.60
2018-10-05T05:29:16.103Z,98.30
2018-10-05T05:31:43.712Z,97.80
2018-10-05T05:34:11.285Z,97.20
2018-10-05T05:36:38.862Z,97.10
2018-10-05T05:39:06.804Z,97.40
2018-10-05T05:41:34.466Z,97.70
2018-10-05T05:44:02.034Z,98.00
2018-10-05T05:46:29.618Z,98.40
2018-10-05T05:48:57.217Z,98.90
2018-10-05T05:51:24.798Z,99.30
2018-10-05T05:53:52.499Z,99.50
2018-10-05T05:56:20.022Z,99.90
2018-10-05T05:58:47.540Z,99.90
2018-10-05T06:01:15.157Z,99.90
2018-10-05T06:03:42.682Z,99.90
2018-10-05T06:06:10.226Z,99.90
2018-10-05T06:08:37.738Z,99.90
2018-10-05T06:11:05.658Z,99.90
2018-10-05T06:13:33.198Z,99.90
2018-10-05T06:16:00.827Z,99.90
2018-10-05T06:18:28.308Z,99.90
2018-10-05T06:20:55.834Z,99.90
2018-10-05T06:23:23.807Z,99.90
2018-10-05T06:25:51.360Z,99.90
2018-10-05T06:28:18.881Z,99.90
2018-10-05T06:30:46.501Z,99.90
2018-10-05T06:33:14.080Z,99.90
2018-10-05T06:35:41.617Z,99.90
2018-10-05T06:38:09.191Z,99.90
2018-10-05T06:40:36.730Z,99.90
2018-10-05T06:43:04.258Z,99.90
2018-10-05T06:45:31.836Z,99.90
2018-10-05T06:47:59.423Z,99.90
2018-10-05T06:50:26.979Z,99.90
2018-10-05T06:52:54.669Z,99.90
2018-10-05T06:55:22.267Z,99.90
2018-10-05T06:57:49.777Z,99.90
2018-10-05T07:00:17.494Z,99.90
2018-10-05T07:02:45.070Z,99.90
2018-10-05T07:05:12.632Z,99.90
2018-10-05T07:07:40.255Z,99.90
2018-10-05T07:10:07.797Z,99.90
2018-10-05T07:12:35.331Z,99.90
2018-10-05T07:15:02.875Z,99.90
2018-10-05T07:17:30.412Z,99.90
2018-10-05T07:19:58.000Z,99.90
2018-10-05T07:22:25.642Z,99.90
2018-10-05T07:24:53.155Z,99.90
2018-10-05T07:27:20.705Z,99.90
2018-10-05T07:29:48.252Z,99.90
2018-10-05T07:32:15.859Z,99.90
2018-10-05T07:34:43.388Z,99.90
2018-10-05T07:37:10.937Z,99.90
2018-10-05T07:39:38.442Z,99.90
2018-10-05T07:42:05.995Z,99.90
2018-10-05T07:44:33.710Z,99.90
2018-10-05T07:47:01.240Z,99.90
2018-10-05T07:49:29.066Z,99.90
2018-10-05T07:51:56.664Z,99.90
2018-10-05T07:54:24.146Z,99.90
2018-10-05T07:56:51.694Z,99.90
2018-10-05T07:59:19.200Z,99.90
2018-10-05T08:01:46.774Z,99.90
2018-10-05T08:04:14.352Z,99.90
2018-10-05T08:06:41.910Z,99.90
2018-10-05T08:09:09.432Z,99.90
2018-10-05T08:11:36.972Z,99.90
2018-10-05T08:14:04.542Z,99.90
2018-10-05T08:16:32.104Z,99.90
2018-10-05T08:18:59.679Z,99.90
2018-10-05T08:21:27.255Z,99.90
2018-10-05T08:23:54.802Z,99.90
2018-10-05T08:26:22.312Z,99.90
2018-10-05T08:28:49.884Z,99.90
2018-10-05T08:31:17.436Z,99.90
2018-10-05T08:33:45.178Z,99.90
2018-10-05T08:36:12.703Z,99.90
2018-10-05T08:38:40.251Z,99.90
2018-10-05T08:41:07.791Z,99.90
2018-10-05T08:43:35.357Z,99.90
2018-10-05T08:46:02.976Z,99.90
2018-10-05T08:48:30.492Z,99.90
2018-10-05T08:50:58.018Z,99.90
2018-10-05T08:53:25.558Z,99.90
2018-10-05T08:55:53.137Z,99.90
2018-10-05T08:58:20.729Z,99.90
2018-10-05T09:00:48.274Z,99.90
2018-10-05T09:03:15.869Z,99.90
2018-10-05T09:05:43.406Z,99.90
2018-10-05T09:08:11.051Z,99.90
2018-10-05T09:10:38.583Z,99.90
2018-10-05T09:13:06.118Z,99.90
2018-10-05T09:15:33.701Z,99.90
2018-10-05T09:18:01.290Z,99.90
2018-10-05T09:20:28.845Z,99.90
2018-10-05T09:22:56.363Z,99.90
2018-10-05T09:25:23.915Z,99.90
2018-10-05T09:27:51.446Z,99.90
2018-10-05T09:30:19.014Z,99.90
2018-10-05T09:32:46.697Z,99.90
2018-10-05T09:35:14.297Z,99.90
2018-10-05T09:37:41.906Z,99.90
2018-10-05T09:40:09.429Z,99.60
2018-10-05T09:42:37.030Z,98.80
2018-10-05T09:45:04.715Z,98.10
2018-10-05T09:47:32.257Z,97.80
2018-10-05T09:49:59.812Z,97.30
2018-10-05T09:52:27.486Z,96.60
2018-10-05T09:54:54.898Z,96.10
2018-10-05T09:57:22.422Z,95.60
2018-10-05T09:59:49.981Z,94.80
2018-10-05T10:02:23.073Z,94.20
2018-10-05T10:04:50.636Z,93.80
2018-10-05T10:07:18.218Z,93.40
2018-10-05T10:09:45.738Z,92.90
2018-10-05T10:12:13.324Z,92.70
2018-10-05T10:14:40.935Z,92.30
2018-10-05T10:17:08.530Z,91.70
2018-10-05T10:19:36.033Z,91.40
2018-10-05T10:22:03.608Z,90.60
2018-10-05T10:24:31.156Z,90.50
2018-10-05T10:26:58.738Z,90.00
2018-10-05T10:29:26.338Z,89.30
2018-10-05T10:31:53.888Z,89.10
2018-10-05T10:34:21.466Z,87.80
2018-10-05T10:36:49.053Z,87.40
2018-10-05T10:39:16.558Z,88.00
2018-10-05T10:41:44.126Z,86.00
2018-10-05T10:44:11.652Z,84.40
2018-10-05T10:46:39.212Z,83.70
2018-10-05T10:49:06.951Z,81.80
2018-10-05T10:51:34.530Z,80.50
2018-10-05T10:54:02.054Z,80.40
2018-10-05T10:56:29.625Z,79.00
2018-10-05T10:58:57.154Z,77.70
2018-10-05T11:01:24.686Z,76.90
2018-10-05T11:03:52.304Z,76.10
2018-10-05T11:06:19.780Z,75.10
2018-10-05T11:08:47.365Z,73.80
2018-10-05T11:11:14.940Z,72.80
2018-10-05T11:13:42.474Z,71.80
2018-10-05T11:16:10.010Z,70.90
2018-10-05T11:18:37.569Z,69.50
2018-10-05T11:21:05.260Z,68.40
2018-10-05T11:23:32.840Z,68.00
2018-10-05T11:26:00.382Z,67.40
2018-10-05T11:28:27.958Z,67.80
2018-10-05T11:30:55.500Z,68.60
2018-10-05T11:33:23.088Z,67.70
2018-10-05T11:35:50.633Z,67.30
2018-10-05T11:38:18.178Z,66.70
2018-10-05T11:40:45.789Z,65.40
2018-10-05T11:43:13.862Z,65.50
2018-10-05T11:45:41.420Z,64.70
2018-10-05T11:48:08.937Z,64.80
2018-10-05T11:50:36.561Z,64.10
2018-10-05T11:53:04.262Z,64.10
2018-10-05T11:55:31.841Z,63.50
2018-10-05T11:57:59.376Z,63.10
2018-10-05T12:00:26.926Z,62.90
2018-10-05T12:02:54.494Z,62.70
2018-10-05T12:05:22.058Z,62.60
2018-10-05T12:07:49.672Z,63.20
2018-10-05T12:10:17.228Z,62.50
2018-10-05T12:12:44.821Z,62.40
2018-10-05T12:15:12.386Z,61.50
2018-10-05T12:17:39.946Z,60.20
2018-10-05T12:20:07.718Z,59.30
2018-10-05T12:22:35.246Z,59.00
2018-10-05T12:25:02.845Z,59.30
2018-10-05T12:27:30.380Z,59.10
2018-10-05T12:29:57.950Z,58.80
2018-10-05T12:32:25.481Z,57.90
2018-10-05T12:34:53.035Z,57.00
2018-10-05T12:37:20.632Z,57.50
2018-10-05T12:39:48.182Z,56.60
2018-10-05T12:42:15.759Z,55.90
2018-10-05T12:44:43.276Z,55.30
2018-10-05T12:47:10.859Z,55.00
2018-10-05T12:49:38.397Z,54.70
2018-10-05T12:52:05.983Z,53.90
2018-10-05T12:54:33.532Z,53.50
2018-10-05T12:57:01.126Z,53.20
2018-10-05T12:59:28.491Z,53.30
2018-10-05T13:01:56.072Z,52.70
2018-10-05T13:04:23.642Z,52.60
2018-10-05T13:06:51.209Z,52.30
2018-10-05T13:09:18.750Z,52.40
2018-10-05T13:11:46.328Z,52.10
2018-10-05T13:14:13.882Z,52.10
2018-10-05T13:16:41.454Z,51.50
2018-10-05T13:19:08.994Z,51.30
2018-10-05T13:21:36.542Z,51.40
2018-10-05T13:24:04.623Z,51.70
2018-10-05T13:26:32.325Z,52.00
2018-10-05T13:28:59.846Z,51.70
2018-10-05T13:31:27.396Z,50.90
2018-10-05T13:33:54.945Z,50.50
2018-10-05T13:36:22.534Z,50.80
2018-10-05T13:38:50.086Z,50.70
2018-10-05T13:41:17.627Z,50.10
2018-10-05T13:43:45.243Z,50.30
2018-10-05T13:46:12.771Z,50.90
2018-10-05T13:48:40.317Z,50.80
2018-10-05T13:51:07.858Z,50.40
2018-10-05T13:53:35.507Z,49.90
2018-10-05T13:56:03.069Z,49.80
2018-10-05T13:58:30.678Z,50.10
2018-10-05T14:00:58.281Z,50.10
2018-10-05T14:03:25.852Z,50.00
2018-10-05T14:05:53.361Z,49.90
2018-10-05T14:08:20.923Z,49.50
2018-10-05T14:10:48.473Z,50.00
2018-10-05T14:13:16.061Z,50.30
2018-10-05T14:15:43.625Z,50.30
2018-10-05T14:18:11.196Z,50.60
2018-10-05T14:20:38.800Z,50.70
2018-10-05T14:23:06.341Z,50.90
2018-10-05T14:25:33.927Z,50.20
2018-10-05T14:28:01.527Z,49.90
2018-10-05T14:30:29.102Z,50.10
2018-10-05T14:32:56.651Z,50.50
2018-10-05T14:35:24.187Z,49.90
2018-10-05T14:37:51.764Z,50.10
2018-10-05T14:40:19.289Z,50.00
2018-10-05T14:42:46.857Z,49.50
2018-10-05T14:45:14.488Z,49.90
2018-10-05T14:47:41.991Z,50.60
2018-10-05T14:50:09.577Z,50.90
2018-10-05T14:52:37.106Z,50.60
2018-10-05T14:55:04.722Z,50.50
2018-10-05T14:57:32.349Z,50.70
2018-10-05T14:59:59.818Z,50.70
2018-10-05T15:02:27.366Z,50.80
2018-10-05T15:04:54.922Z,50.70
2018-10-05T15:07:22.420Z,51.00
2018-10-05T15:09:49.973Z,51.30
2018-10-05T15:12:17.529Z,51.30
2018-10-05T15:14:45.128Z,51.70
2018-10-05T15:17:12.752Z,51.40
2018-10-05T15:19:40.269Z,51.40
2018-10-05T15:22:07.828Z,51.10
2018-10-05T15:24:35.396Z,50.70
2018-10-05T15:27:02.974Z,50.60
2018-10-05T15:29:30.477Z,50.90
2018-10-05T15:31:58.080Z,51.00
2018-10-05T15:34:25.641Z,51.30
2018-10-05T15:36:53.201Z,51.70
2018-10-05T15:39:20.726Z,52.10
2018-10-05T15:41:48.293Z,52.50
2018-10-05T15:44:15.872Z,53.10
2018-10-05T15:46:54.791Z,53.90
2018-10-05T15:49:22.296Z,54.90
2018-10-05T15:51:49.878Z,56.10
2018-10-05T15:54:17.451Z,57.50
2018-10-05T15:56:45.021Z,58.90
2018-10-05T15:59:12.783Z,60.30
2018-10-05T16:01:40.346Z,61.80
2018-10-05T16:04:07.930Z,63.20
2018-10-05T16:06:35.500Z,64.50
2018-10-05T16:09:04.155Z,65.60
2018-10-05T16:11:31.737Z,66.80
2018-10-05T16:13:59.279Z,67.90
2018-10-05T16:16:26.826Z,69.00
2018-10-05T16:18:54.409Z,70.00
2018-10-05T16:21:22.028Z,70.90
2018-10-05T16:23:50.274Z,71.70
2018-10-05T16:26:17.840Z,72.50
2018-10-05T16:28:45.388Z,73.30
2018-10-05T16:31:13.026Z,74.00
2018-10-05T16:33:40.508Z,74.90
2018-10-05T16:36:08.054Z,75.70
2018-10-05T16:38:35.629Z,76.40
2018-10-05T16:41:03.292Z,77.20
2018-10-05T16:43:30.993Z,78.10
2018-10-05T16:45:58.654Z,78.90
2018-10-05T16:48:26.224Z,79.70
2018-10-05T16:50:53.897Z,81.00
2018-10-05T16:53:21.495Z,82.10
2018-10-05T16:55:49.345Z,83.40
2018-10-05T16:58:16.891Z,84.90
2018-10-05T17:00:44.475Z,86.30
2018-10-05T17:03:12.015Z,87.70
2018-10-05T17:05:39.562Z,89.10
2018-10-05T17:08:07.161Z,90.20
2018-10-05T17:10:34.823Z,90.80
2018-10-05T17:13:02.353Z,91.40
2018-10-05T17:15:30.080Z,91.70
2018-10-05T17:17:57.623Z,92.20
2018-10-05T17:20:25.392Z,92.80
2018-10-05T17:22:53.236Z,93.30
2018-10-05T17:25:20.859Z,93.60
2018-10-05T17:27:48.487Z,93.70
2018-10-05T17:30:16.134Z,94.10
2018-10-05T17:32:43.709Z,94.60
2018-10-05T17:35:11.396Z,94.80
2018-10-05T17:37:39.992Z,95.00
2018-10-05T17:40:08.517Z,95.20
2018-10-05T17:42:36.152Z,95.30
2018-10-05T17:45:03.940Z,95.50
2018-10-05T17:47:31.508Z,95.70
2018-10-05T17:49:59.094Z,96.10
2018-10-05T17:52:26.674Z,95.90
2018-10-05T17:54:54.434Z,96.10
2018-10-05T17:57:23.139Z,96.30
2018-10-05T17:59:50.704Z,96.40
2018-10-05T18:02:18.834Z,96.50
2018-10-05T18:04:46.807Z,96.70
2018-10-05T18:07:14.872Z,96.80
2018-10-05T18:09:42.800Z,96.90
2018-10-05T18:12:13.360Z,97.00
2018-10-05T18:14:41.170Z,97.20
2018-10-05T18:17:09.390Z,97.80
2018-10-05T18:19:38.338Z,98.20
2018-10-05T18:22:06.552Z,97.70
2018-10-05T18:24:35.276Z,97.70
2018-10-05T18:27:02.944Z,97.90
2018-10-05T18:29:30.863Z,98.00
2018-10-05T18:31:58.520Z,98.10
2018-10-05T18:34:27.049Z,98.10
2018-10-05T18:36:54.809Z,98.40
2018-10-05T18:39:22.474Z,98.50
2018-10-05T18:41:50.185Z,98.50
2018-10-05T18:44:18.016Z,98.70
2018-10-05T18:46:45.987Z,98.80
2018-10-05T18:49:13.676Z,98.90
2018-10-05T18:51:41.349Z,98.90
2018-10-05T18:54:09.189Z,99.30
2018-10-05T18:56:48.059Z,99.00
2018-10-05T18:59:16.277Z,99.10
2018-10-05T19:01:44.363Z,99.20
2018-10-05T19:04:12.166Z,99.30
2018-10-05T19:06:40.082Z,99.30
2018-10-05T19:09:07.839Z,99.30
2018-10-05T19:11:36.110Z,99.30
2018-10-05T19:14:03.823Z,99.40
2018-10-05T19:16:31.695Z,99.40
2018-10-05T19:19:00.881Z,99.40
2018-10-05T19:21:28.753Z,99.70
2018-10-05T19:23:56.711Z,99.90
2018-10-05T19:26:25.101Z,99.90
2018-10-05T19:28:53.270Z,99.90
2018-10-05T19:31:21.181Z,99.90
2018-10-05T19:33:49.074Z,99.90
2018-10-05T19:36:16.913Z,99.90
2018-10-05T19:38:44.881Z,99.90
2018-10-05T19:41:12.733Z,99.90
2018-10-05T19:43:40.408Z,99.90
2018-10-05T19:46:08.503Z,99.90
2018-10-05T19:48:36.178Z,99.90
2018-10-05T19:51:03.906Z,99.90
2018-10-05T19:53:31.742Z,99.90
2018-10-05T19:55:59.282Z,99.90
2018-10-05T19:58:27.040Z,99.90
2018-10-05T20:00:54.968Z,99.90
2018-10-05T20:03:22.628Z,99.90
2018-10-05T20:05:50.305Z,99.90
2018-10-05T20:08:17.949Z,99.90
2018-10-05T20:10:45.703Z,99.90
2018-10-05T20:13:13.373Z,99.90
2018-10-05T20:15:41.069Z,99.90
2018-10-05T20:18:09.470Z,99.90
2018-10-05T20:20:37.112Z,99.90
2018-10-05T20:23:04.835Z,99.90
2018-10-05T20:25:32.481Z,99.90
2018-10-05T20:28:00.174Z,99.90
2018-10-05T20:30:27.851Z,99.90
2018-10-05T20:32:56.440Z,99.90
2018-10-05T20:35:24.279Z,99.90
2018-10-05T20:37:52.008Z,99.90
2018-10-05T20:40:20.366Z,99.90
2018-10-05T20:42:48.124Z,99.90
2018-10-05T20:45:15.867Z,99.90
2018-10-05T20:47:43.509Z,99.90
2018-10-05T20:50:11.162Z,99.90
2018-10-05T20:52:38.835Z,99.90
2018-10-05T20:55:06.560Z,99.90
2018-10-05T20:57:34.817Z,99.90
2018-10-05T21:00:02.557Z,99.90
2018-10-05T21:02:30.505Z,99.90
2018-10-05T21:04:58.200Z,99.90
2018-10-05T21:07:25.838Z,99.90
2018-10-05T21:09:53.533Z,99.90
2018-10-05T21:12:21.311Z,99.90
2018-10-05T21:14:48.980Z,99.90
2018-10-05T21:17:16.720Z,99.90
2018-10-05T21:19:44.372Z,99.90
2018-10-05T21:22:12.029Z,99.90
2018-10-05T21:24:39.821Z,99.90
2018-10-05T21:27:07.481Z,99.90
2018-10-05T21:29:35.081Z,99.90
2018-10-05T21:32:02.726Z,99.90
2018-10-05T21:34:30.331Z,99.90
2018-10-05T21:36:58.024Z,99.90
2018-10-05T21:39:25.651Z,99.90
2018-10-05T21:41:53.255Z,99.90
2018-10-05T21:44:20.817Z,99.90
2018-10-05T21:46:48.414Z,99.90
2018-10-05T21:49:16.012Z,99.90
2018-10-05T21:51:43.825Z,99.90
2018-10-05T21:54:11.362Z,99.90
2018-10-05T21:56:38.921Z,99.90
2018-10-05T21:59:06.474Z,99.90
2018-10-05T22:01:34.039Z,99.90
2018-10-05T22:04:01.648Z,99.90
2018-10-05T22:06:29.228Z,99.90
2018-10-05T22:08:56.815Z,99.90
2018-10-05T22:11:24.361Z,99.90
2018-10-05T22:13:51.917Z,99.90
2018-10-05T22:16:19.520Z,99.90
2018-10-05T22:18:47.119Z,99.90
2018-10-05T22:21:14.709Z,99.90
2018-10-05T22:23:42.273Z,99.90
2018-10-05T22:26:09.878Z,99.90
2018-10-05T22:28:37.444Z,99.90
2018-10-05T22:31:05.013Z,99.90
2018-10-05T22:33:32.587Z,99.90
2018-10-05T22:38:27.653Z,99.90
2018-10-05T22:40:55.244Z,99.90
2018-10-05T22:43:22.794Z,99.90
2018-10-05T22:45:50.350Z,99.90
2018-10-05T22:48:17.899Z,99.90
2018-10-05T22:50:45.533Z,99.90
2018-10-05T22:53:13.097Z,99.90
2018-10-05T22:55:40.670Z,99.90
2018-10-05T22:58:08.222Z,99.90
2018-10-05T23:00:35.787Z,99.90
2018-10-05T23:03:03.318Z,99.90
2018-10-05T23:05:30.900Z,99.90
2018-10-05T23:07:58.420Z,99.90
2018-10-05T23:10:25.999Z,99.90
2018-10-05T23:12:53.576Z,99.90
2018-10-05T23:15:21.150Z,99.90
2018-10-05T23:17:48.689Z,99.90
2018-10-05T23:20:16.413Z,99.90
2018-10-05T23:22:43.955Z,99.90
2018-10-05T23:25:11.489Z,99.90
2018-10-05T23:27:39.053Z,99.90
2018-10-05T23:30:06.671Z,99.90
2018-10-05T23:32:34.254Z,99.90
2018-10-05T23:35:01.840Z,99.90
2018-10-05T23:37:29.387Z,99.90
2018-10-05T23:39:56.909Z,99.90
2018-10-05T23:42:24.510Z,99.90
2018-10-05T23:44:52.057Z,99.90
2018-10-05T23:47:19.607Z,99.90
2018-10-05T23:49:47.175Z,99.90
2018-10-05T23:52:40.885Z,99.90
2018-10-05T23:55:08.452Z,99.90
2018-10-05T23:57:36.761Z,99.90
